createdAt,value
2023-01-17T00:00:32.281Z,971.37
2023-01-17T00:06:16.400Z,971.38
2023-01-17T00:12:00.122Z,971.45
2023-01-17T00:17:42.753Z,971.46
2023-01-17T00:23:26.125Z,971.45
2023-01-17T00:29:19.117Z,971.46
2023-01-17T00:35:01.841Z,971.5
2023-01-17T00:40:45.413Z,971.6
2023-01-17T00:46:28.371Z,971.59
2023-01-17T00:52:11.306Z,971.61
2023-01-17T00:57:54.174Z,971.66
2023-01-17T01:03:37.145Z,971.7
2023-01-17T01:09:20.100Z,971.76
2023-01-17T01:15:03.078Z,971.81
2023-01-17T01:20:45.983Z,971.88
2023-01-17T01:26:28.766Z,971.94
2023-01-17T01:32:11.586Z,971.92
2023-01-17T01:37:54.345Z,971.94
2023-01-17T01:43:45.252Z,972.09
2023-01-17T01:49:28.120Z,972.12
2023-01-17T01:55:12.360Z,972.14
2023-01-17T02:00:55.646Z,972.25
2023-01-17T02:06:42.338Z,972.25
2023-01-17T02:12:25.818Z,972.34
2023-01-17T02:18:13.206Z,972.36
2023-01-17T02:24:22.666Z,972.38
2023-01-17T02:30:19.427Z,972.38
2023-01-17T02:36:06.631Z,972.39
2023-01-17T02:41:52.673Z,972.24
2023-01-17T02:47:35.686Z,972.21
2023-01-17T02:53:26.100Z,972.21
2023-01-17T02:59:14.123Z,972.16
2023-01-17T03:05:01.808Z,972.23
2023-01-17T03:10:45.383Z,972.23
2023-01-17T03:16:29.783Z,972.18
2023-01-17T03:22:12.637Z,972.14
2023-01-17T03:27:55.550Z,972.07
2023-01-17T03:33:38.401Z,972.02
2023-01-17T03:39:21.378Z,971.97
2023-01-17T03:45:04.542Z,972
2023-01-17T03:50:50.654Z,972.08
2023-01-17T03:56:33.766Z,971.99
2023-01-17T04:02:17.208Z,971.87
2023-01-17T04:08:00.592Z,971.92
2023-01-17T04:13:43.615Z,971.97
2023-01-17T04:19:26.376Z,972.08
2023-01-17T04:25:09.983Z,971.98
2023-01-17T04:30:52.900Z,971.94
2023-01-17T04:36:36.009Z,971.8
2023-01-17T04:42:19.006Z,971.76
2023-01-17T04:48:07.302Z,971.69
2023-01-17T04:53:50.204Z,971.72
2023-01-17T04:59:32.997Z,971.67
2023-01-17T05:05:16.181Z,971.67
2023-01-17T05:10:58.994Z,971.59
2023-01-17T05:16:41.983Z,971.55
2023-01-17T05:22:24.793Z,971.58
2023-01-17T05:28:07.410Z,971.61
2023-01-17T05:33:50.385Z,971.51
2023-01-17T05:39:33.251Z,971.52
2023-01-17T05:45:16.838Z,971.46
2023-01-17T05:50:59.563Z,971.37
2023-01-17T05:56:42.663Z,971.4
2023-01-17T06:02:25.856Z,971.46
2023-01-17T06:08:09.173Z,971.41
2023-01-17T06:13:52.617Z,971.32
2023-01-17T06:19:35.404Z,971.4
2023-01-17T06:25:18.241Z,971.36
2023-01-17T06:31:05.841Z,971.33
2023-01-17T06:36:48.814Z,971.38
2023-01-17T06:42:31.905Z,971.33
2023-01-17T06:48:14.981Z,971.31
2023-01-17T06:53:57.855Z,971.29
2023-01-17T06:59:40.789Z,971.3
2023-01-17T07:05:24.017Z,971.3
2023-01-17T07:11:08.088Z,971.22
2023-01-17T07:16:51.090Z,971.26
2023-01-17T07:22:34.244Z,971.3
2023-01-17T07:28:17.174Z,971.36
2023-01-17T07:34:00.020Z,971.42
2023-01-17T07:39:43.076Z,971.42
2023-01-17T07:45:25.976Z,971.43
2023-01-17T07:51:09.409Z,971.48
2023-01-17T07:56:52.320Z,971.52
2023-01-17T08:02:35.397Z,971.51
2023-01-17T08:08:18.846Z,971.62
2023-01-17T08:14:01.582Z,971.67
2023-01-17T08:19:44.741Z,971.66
2023-01-17T08:25:27.702Z,971.61
2023-01-17T08:31:11.294Z,971.56
2023-01-17T08:36:56.516Z,971.61
2023-01-17T08:42:39.325Z,971.6
2023-01-17T08:48:22.512Z,971.63
2023-01-17T08:54:05.583Z,971.66
2023-01-17T08:59:48.722Z,971.72
2023-01-17T09:05:31.680Z,971.7
2023-01-17T09:11:16.402Z,971.67
2023-01-17T09:16:59.762Z,971.68
2023-01-17T09:22:42.980Z,971.67
2023-01-17T09:28:28.515Z,971.72
2023-01-17T09:34:11.499Z,971.79
2023-01-17T09:39:54.509Z,971.78
2023-01-17T09:45:37.449Z,971.81
2023-01-17T09:51:22.255Z,971.83
2023-01-17T09:57:09.538Z,971.81
2023-01-17T10:03:00.602Z,971.84
2023-01-17T10:08:53.981Z,971.89
2023-01-17T10:14:48.591Z,971.93
2023-01-17T10:20:38.144Z,971.9
2023-01-17T10:26:22.846Z,971.91
2023-01-17T10:32:06.386Z,971.89
2023-01-17T10:37:49.711Z,971.92
2023-01-17T10:43:37.193Z,971.9
2023-01-17T10:49:21.815Z,971.88
2023-01-17T10:55:09.138Z,971.83
2023-01-17T11:00:55.960Z,971.82
2023-01-17T11:06:57.519Z,971.88
2023-01-17T11:12:41.758Z,971.8
2023-01-17T11:18:25.641Z,971.74
2023-01-17T11:24:16.925Z,971.67
2023-01-17T11:30:11.692Z,971.65
2023-01-17T11:35:54.888Z,971.61
2023-01-17T11:41:38.978Z,971.58
2023-01-17T11:47:21.792Z,971.5
2023-01-17T11:53:18.037Z,971.41
2023-01-17T11:59:11.769Z,971.42
2023-01-17T12:05:01.620Z,971.38
2023-01-17T12:10:50.136Z,971.36
2023-01-17T12:16:40.139Z,971.26
2023-01-17T12:22:29.393Z,971.2
2023-01-17T12:28:26.197Z,971.24
2023-01-17T12:34:15.116Z,971.16
2023-01-17T12:40:02.333Z,971.13
2023-01-17T12:45:46.774Z,971.02
2023-01-17T12:51:31.682Z,971.03
2023-01-17T12:57:16.747Z,971
2023-01-17T13:03:03.004Z,970.95
2023-01-17T13:08:49.242Z,970.96
2023-01-17T13:14:32.282Z,970.92
2023-01-17T13:20:20.551Z,970.78
2023-01-17T13:26:04.141Z,970.72
2023-01-17T13:31:52.365Z,970.76
2023-01-17T13:37:43.094Z,970.72
2023-01-17T13:43:27.693Z,970.78
2023-01-17T13:49:26.912Z,970.75
2023-01-17T13:55:15.069Z,970.81
2023-01-17T14:00:58.407Z,970.92
2023-01-17T14:06:43.671Z,971
2023-01-17T14:12:31.780Z,971.13
2023-01-17T14:18:25.941Z,971.25
2023-01-17T14:24:15.829Z,971.27
2023-01-17T14:30:00.223Z,971.42
2023-01-17T14:35:50.301Z,971.5
2023-01-17T14:41:33.459Z,971.47
2023-01-17T14:47:17.349Z,971.51
2023-01-17T14:53:23.314Z,971.58
2023-01-17T14:59:13.553Z,971.39
2023-01-17T15:04:58.986Z,971.48
2023-01-17T15:10:46.070Z,971.6
2023-01-17T15:16:30.156Z,971.62
2023-01-17T15:22:13.350Z,971.59
2023-01-17T15:27:56.502Z,971.58
2023-01-17T15:33:40.857Z,971.52
2023-01-17T15:39:25.002Z,971.52
2023-01-17T15:45:12.725Z,971.56
2023-01-17T15:51:01.992Z,971.57
2023-01-17T15:56:44.969Z,971.58
2023-01-17T16:02:44.125Z,971.62
2023-01-17T16:08:40.140Z,971.68
2023-01-17T16:14:23.212Z,971.75
2023-01-17T16:20:10.184Z,971.84
2023-01-17T16:25:53.305Z,971.93
2023-01-17T16:31:36.141Z,971.95
2023-01-17T16:37:20.730Z,971.99
2023-01-17T16:43:04.167Z,972.05
2023-01-17T16:48:47.210Z,972.1
2023-01-17T16:54:30.293Z,972.19
2023-01-17T17:00:13.937Z,972.22
2023-01-17T17:06:00.510Z,972.22
2023-01-17T17:11:43.258Z,972.3
2023-01-17T17:17:26.194Z,972.38
2023-01-17T17:23:09.029Z,972.45
2023-01-17T17:28:55.351Z,972.58
2023-01-17T17:34:38.354Z,972.55
2023-01-17T17:40:21.525Z,972.63
2023-01-17T17:46:04.654Z,972.63
2023-01-17T17:51:47.927Z,972.76
2023-01-17T17:57:31.056Z,972.83
2023-01-17T18:03:14.111Z,972.83
2023-01-17T18:08:58.118Z,972.86
2023-01-17T18:14:41.198Z,972.91
2023-01-17T18:20:24.255Z,972.96
2023-01-17T18:26:07.363Z,973.12
2023-01-17T18:31:57.391Z,973.2
2023-01-17T18:37:40.532Z,973.28
2023-01-17T18:43:26.507Z,973.34
2023-01-17T18:49:10.966Z,973.41
2023-01-17T18:54:53.906Z,973.42
2023-01-17T19:00:36.766Z,973.44
2023-01-17T19:06:21.255Z,973.57
2023-01-17T19:12:04.033Z,973.6
2023-01-17T19:17:46.922Z,973.6
2023-01-17T19:23:29.786Z,973.67
2023-01-17T19:29:12.798Z,973.72
2023-01-17T19:34:55.815Z,973.76
2023-01-17T19:40:38.716Z,973.79
2023-01-17T19:46:21.851Z,973.83
2023-01-17T19:52:04.745Z,973.89
2023-01-17T19:57:47.846Z,973.87
2023-01-17T20:03:30.728Z,973.84
2023-01-17T20:09:14.821Z,973.87
2023-01-17T20:14:58.286Z,973.9
2023-01-17T20:20:56.842Z,973.89
2023-01-17T20:26:40.193Z,973.96
2023-01-17T20:32:23.374Z,973.97
2023-01-17T20:38:06.535Z,974.1
2023-01-17T20:43:50.644Z,974.14
2023-01-17T20:49:33.566Z,974.15
2023-01-17T20:55:16.957Z,974.16
2023-01-17T21:00:59.950Z,974.28
2023-01-17T21:06:44.313Z,974.33
2023-01-17T21:12:27.562Z,974.37
2023-01-17T21:18:10.568Z,974.42
2023-01-17T21:23:54.393Z,974.47
2023-01-17T21:29:37.315Z,974.5
2023-01-17T21:35:20.560Z,974.54
2023-01-17T21:41:03.578Z,974.55
2023-01-17T21:46:46.730Z,974.55
2023-01-17T21:52:30.414Z,974.63
2023-01-17T21:58:17.273Z,974.75
2023-01-17T22:04:00.879Z,974.8
2023-01-17T22:09:43.785Z,974.8
2023-01-17T22:15:26.523Z,974.79
2023-01-17T22:21:11.784Z,974.86
2023-01-17T22:26:54.908Z,974.92
2023-01-17T22:32:37.942Z,974.94
2023-01-17T22:38:21.045Z,974.97
2023-01-17T22:44:04.350Z,974.96
2023-01-17T22:49:48.520Z,974.97
2023-01-17T22:55:31.321Z,974.99
2023-01-17T23:01:16.258Z,974.93
2023-01-17T23:06:59.285Z,974.98
2023-01-17T23:12:42.165Z,974.97
2023-01-17T23:18:25.042Z,975.04
2023-01-17T23:24:08.119Z,975.06
2023-01-17T23:29:52.206Z,975.03
2023-01-17T23:35:42.033Z,975.07
2023-01-17T23:41:25.666Z,975.1
2023-01-17T23:47:08.621Z,975.13
2023-01-17T23:52:51.392Z,975.16
2023-01-17T23:58:34.161Z,975.16
